createdAt,value
2023-02-04T00:01:34.690Z,3.60
2023-02-04T00:04:01.220Z,3.55
2023-02-04T00:06:27.651Z,3.45
2023-02-04T00:08:54.033Z,3.47
2023-02-04T00:11:20.504Z,3.63
2023-02-04T00:13:46.841Z,4.15
2023-02-04T00:16:13.337Z,3.97
2023-02-04T00:18:39.797Z,3.50
2023-02-04T00:21:06.245Z,3.00
2023-02-04T00:23:32.640Z,3.10
2023-02-04T00:25:59.143Z,3.53
2023-02-04T00:28:25.535Z,2.90
2023-02-04T00:30:51.886Z,1.85
2023-02-04T00:33:18.178Z,2.40
2023-02-04T00:35:44.581Z,2.60
2023-02-04T00:38:10.940Z,3.50
2023-02-04T00:40:37.337Z,2.35
2023-02-04T00:43:03.693Z,2.40
2023-02-04T00:45:30.587Z,2.30
2023-02-04T00:47:57.337Z,2.38
2023-02-04T00:50:24.098Z,2.97
2023-02-04T00:52:50.545Z,2.60
2023-02-04T00:55:18.224Z,2.75
2023-02-04T00:57:47.050Z,3.10
2023-02-04T01:00:14.204Z,2.92
2023-02-04T01:02:43.238Z,2.95
2023-02-04T01:05:10.491Z,3.13
2023-02-04T01:07:36.889Z,2.20
2023-02-04T01:10:03.868Z,2.80
2023-02-04T01:12:30.280Z,2.63
2023-02-04T01:14:56.823Z,3.05
2023-02-04T01:17:23.189Z,3.53
2023-02-04T01:19:49.545Z,2.67
2023-02-04T01:22:15.912Z,2.13
2023-02-04T01:24:42.207Z,2.78
2023-02-04T01:27:08.645Z,2.60
2023-02-04T01:29:34.986Z,2.28
2023-02-04T01:32:01.405Z,2.92
2023-02-04T01:34:28.394Z,2.85
2023-02-04T01:36:54.717Z,2.63
2023-02-04T01:39:21.035Z,2.72
2023-02-04T01:41:47.570Z,2.42
2023-02-04T01:44:13.881Z,2.20
2023-02-04T01:46:40.351Z,2.33
2023-02-04T01:49:07.052Z,3.08
2023-02-04T01:51:34.085Z,3.22
2023-02-04T01:54:00.639Z,2.58
2023-02-04T01:56:27.675Z,2.25
2023-02-04T01:58:55.174Z,2.58
2023-02-04T02:01:34.985Z,2.50
2023-02-04T02:04:01.746Z,2.50
2023-02-04T02:06:28.594Z,2.88
2023-02-04T02:08:54.969Z,3.05
2023-02-04T02:11:21.409Z,3.03
2023-02-04T02:13:47.873Z,3.25
2023-02-04T02:16:14.438Z,2.83
2023-02-04T02:18:40.855Z,2.70
2023-02-04T02:21:09.837Z,2.90
2023-02-04T02:23:50.280Z,3.05
2023-02-04T02:26:17.565Z,2.45
2023-02-04T02:28:44.580Z,2.58
2023-02-04T02:31:11.094Z,2.40
2023-02-04T02:33:37.505Z,3.00
2023-02-04T02:36:03.994Z,3.00
2023-02-04T02:38:30.464Z,2.47
2023-02-04T02:40:56.802Z,2.05
2023-02-04T02:43:25.551Z,2.55
2023-02-04T02:45:52.350Z,2.58
2023-02-04T02:48:18.917Z,2.70
2023-02-04T02:50:45.577Z,2.45
2023-02-04T02:53:13.221Z,3.30
2023-02-04T02:55:39.691Z,3.17
2023-02-04T02:58:11.718Z,2.47
2023-02-04T03:00:38.062Z,2.78
2023-02-04T03:03:04.354Z,2.38
2023-02-04T03:05:32.139Z,3.17
2023-02-04T03:07:58.766Z,2.60
2023-02-04T03:10:25.230Z,2.63
2023-02-04T03:12:51.648Z,2.97
2023-02-04T03:15:18.253Z,3.03
2023-02-04T03:17:45.100Z,2.88
2023-02-04T03:20:11.710Z,3.03
2023-02-04T03:22:38.093Z,2.60
2023-02-04T03:25:04.698Z,3.47
2023-02-04T03:27:31.041Z,3.40
2023-02-04T03:29:57.420Z,2.85
2023-02-04T03:32:23.789Z,2.58
2023-02-04T03:34:50.162Z,3.38
2023-02-04T03:37:16.578Z,3.50
2023-02-04T03:39:42.934Z,2.78
2023-02-04T03:42:09.279Z,3.75
2023-02-04T03:44:35.631Z,3.20
2023-02-04T03:47:02.020Z,3.25
2023-02-04T03:49:28.561Z,3.20
2023-02-04T03:51:54.914Z,3.25
2023-02-04T03:54:21.253Z,3.15
2023-02-04T03:56:47.770Z,2.88
2023-02-04T03:59:14.150Z,3.15
2023-02-04T04:01:40.516Z,3.45
2023-02-04T04:04:06.844Z,3.17
2023-02-04T04:06:33.209Z,3.60
2023-02-04T04:08:59.567Z,4.25
2023-02-04T04:11:26.000Z,3.55
2023-02-04T04:13:52.445Z,4.28
2023-02-04T04:16:20.722Z,3.50
2023-02-04T04:18:47.120Z,4.25
2023-02-04T04:21:13.567Z,3.70
2023-02-04T04:23:40.027Z,3.67
2023-02-04T04:26:06.386Z,4.05
2023-02-04T04:28:32.707Z,3.53
2023-02-04T04:30:59.109Z,4.10
2023-02-04T04:33:25.480Z,3.28
2023-02-04T04:35:51.802Z,4.40
2023-02-04T04:38:18.142Z,2.90
2023-02-04T04:40:44.552Z,2.92
2023-02-04T04:43:10.984Z,3.88
2023-02-04T04:45:37.306Z,4.00
2023-02-04T04:48:03.803Z,3.38
2023-02-04T04:50:30.475Z,3.65
2023-02-04T04:52:56.970Z,3.20
2023-02-04T04:55:23.349Z,3.55
2023-02-04T04:57:49.691Z,4.25
2023-02-04T05:00:18.001Z,3.75
2023-02-04T05:02:44.335Z,3.78
2023-02-04T05:05:11.376Z,4.13
2023-02-04T05:07:37.805Z,3.92
2023-02-04T05:10:04.358Z,4.97
2023-02-04T05:12:30.684Z,4.28
2023-02-04T05:14:57.314Z,3.85
2023-02-04T05:17:23.859Z,3.75
2023-02-04T05:19:50.194Z,3.67
2023-02-04T05:22:16.540Z,3.45
2023-02-04T05:24:42.867Z,3.72
2023-02-04T05:27:09.254Z,3.88
2023-02-04T05:29:35.613Z,3.45
2023-02-04T05:32:01.994Z,3.63
2023-02-04T05:34:28.463Z,3.53
2023-02-04T05:36:54.766Z,4.20
2023-02-04T05:39:21.111Z,4.47
2023-02-04T05:41:47.672Z,3.15
2023-02-04T05:44:14.179Z,3.20
2023-02-04T05:46:40.620Z,3.80
2023-02-04T05:49:08.232Z,3.40
2023-02-04T05:51:34.693Z,3.55
2023-02-04T05:54:01.037Z,3.63
2023-02-04T05:56:27.366Z,3.10
2023-02-04T05:58:53.770Z,3.17
2023-02-04T06:01:20.171Z,4.40
2023-02-04T06:03:46.484Z,3.70
2023-02-04T06:06:12.852Z,3.55
2023-02-04T06:08:39.179Z,3.50
2023-02-04T06:11:05.733Z,3.65
2023-02-04T06:13:32.015Z,3.80
2023-02-04T06:15:58.416Z,5.32
2023-02-04T06:18:24.832Z,4.15
2023-02-04T06:20:51.165Z,3.17
2023-02-04T06:23:17.552Z,3.92
2023-02-04T06:25:43.964Z,3.25
2023-02-04T06:28:10.333Z,3.65
2023-02-04T06:30:37.499Z,3.58
2023-02-04T06:33:04.072Z,4.70
2023-02-04T06:35:30.570Z,3.63
2023-02-04T06:37:56.945Z,3.72
2023-02-04T06:40:23.319Z,3.83
2023-02-04T06:42:49.630Z,3.35
2023-02-04T06:45:16.057Z,4.03
2023-02-04T06:47:42.508Z,3.90
2023-02-04T06:50:09.172Z,3.88
2023-02-04T06:52:35.628Z,3.28
2023-02-04T06:55:01.983Z,3.25
2023-02-04T06:57:28.378Z,3.08
2023-02-04T06:59:54.904Z,3.20
2023-02-04T07:02:21.264Z,4.03
2023-02-04T07:04:49.279Z,4.00
2023-02-04T07:07:15.631Z,4.00
2023-02-04T07:09:42.568Z,4.88
2023-02-04T07:12:09.035Z,3.80
2023-02-04T07:14:35.365Z,4.05
2023-02-04T07:17:01.977Z,4.03
2023-02-04T07:19:28.346Z,4.30
2023-02-04T07:21:56.740Z,3.85
2023-02-04T07:24:23.798Z,3.65
2023-02-04T07:26:50.330Z,3.83
2023-02-04T07:29:24.152Z,2.95
2023-02-04T07:31:52.810Z,4.28
2023-02-04T07:34:19.449Z,3.33
2023-02-04T07:36:45.906Z,3.58
2023-02-04T07:39:12.424Z,4.15
2023-02-04T07:41:38.765Z,3.63
2023-02-04T07:44:05.205Z,4.25
2023-02-04T07:46:31.579Z,4.20
2023-02-04T07:48:57.914Z,3.50
2023-02-04T07:51:24.277Z,4.68
2023-02-04T07:53:50.600Z,4.20
2023-02-04T07:56:16.951Z,4.35
2023-02-04T07:58:43.299Z,4.65
2023-02-04T08:01:09.734Z,5.22
2023-02-04T08:03:37.154Z,5.85
2023-02-04T08:06:03.651Z,4.72
2023-02-04T08:08:30.102Z,4.93
2023-02-04T08:10:58.051Z,4.75
2023-02-04T08:13:25.491Z,5.70
2023-02-04T08:15:52.114Z,5.95
2023-02-04T08:18:18.505Z,5.10
2023-02-04T08:20:44.798Z,6.45
2023-02-04T08:23:11.139Z,5.82
2023-02-04T08:25:37.477Z,4.45
2023-02-04T08:28:04.866Z,5.40
2023-02-04T08:30:31.517Z,5.53
2023-02-04T08:32:58.038Z,6.40
2023-02-04T08:35:24.407Z,5.38
2023-02-04T08:37:50.799Z,6.20
2023-02-04T08:40:17.821Z,5.88
2023-02-04T08:42:44.814Z,5.88
2023-02-04T08:45:11.134Z,5.70
2023-02-04T08:47:37.522Z,5.80
2023-02-04T08:50:03.890Z,5.35
2023-02-04T08:52:30.255Z,5.57
2023-02-04T08:54:56.586Z,6.38
2023-02-04T08:57:22.951Z,5.78
2023-02-04T08:59:49.261Z,5.55
2023-02-04T09:02:15.770Z,6.10
2023-02-04T09:04:42.107Z,5.45
2023-02-04T09:07:08.465Z,5.88
2023-02-04T09:09:34.802Z,5.72
2023-02-04T09:12:01.935Z,6.20
2023-02-04T09:14:28.313Z,5.72
2023-02-04T09:16:54.636Z,5.47
2023-02-04T09:19:25.312Z,5.93
2023-02-04T09:21:52.608Z,5.97
2023-02-04T09:24:19.036Z,5.15
2023-02-04T09:26:45.412Z,5.90
2023-02-04T09:29:11.696Z,5.05
2023-02-04T09:31:39.060Z,6.57
2023-02-04T09:34:05.560Z,5.78
2023-02-04T09:36:34.264Z,5.47
2023-02-04T09:39:00.629Z,5.28
2023-02-04T09:41:26.979Z,6.05
2023-02-04T09:43:53.365Z,6.40
2023-02-04T09:46:23.762Z,6.18
2023-02-04T09:48:50.543Z,5.47
2023-02-04T09:51:19.159Z,5.82
2023-02-04T09:53:45.609Z,6.10
2023-02-04T09:56:12.945Z,6.55
2023-02-04T09:58:39.365Z,5.72
2023-02-04T10:01:10.962Z,5.95
2023-02-04T10:03:46.318Z,6.13
2023-02-04T10:06:16.821Z,4.97
2023-02-04T10:08:43.888Z,4.50
2023-02-04T10:11:10.637Z,4.57
2023-02-04T10:13:38.508Z,5.18
2023-02-04T10:16:11.121Z,4.30
2023-02-04T10:18:38.067Z,3.90
2023-02-04T10:21:16.957Z,4.85
2023-02-04T10:23:44.468Z,3.95
2023-02-04T10:26:14.557Z,3.67
2023-02-04T10:28:40.956Z,3.10
2023-02-04T10:31:25.878Z,3.67
2023-02-04T10:34:02.187Z,2.97
2023-02-04T10:36:28.496Z,2.95
2023-02-04T10:39:02.084Z,3.03
2023-02-04T10:41:28.581Z,2.53
2023-02-04T10:43:55.729Z,2.75
2023-02-04T10:46:22.147Z,3.92
2023-02-04T10:48:48.572Z,3.10
2023-02-04T10:51:14.877Z,3.30
2023-02-04T10:53:59.948Z,3.95
2023-02-04T10:56:26.289Z,2.65
2023-02-04T10:58:52.694Z,3.97
2023-02-04T11:01:19.287Z,2.75
2023-02-04T11:03:48.051Z,2.80
2023-02-04T11:06:19.883Z,2.85
2023-02-04T11:08:46.384Z,2.63
2023-02-04T11:11:17.456Z,3.22
2023-02-04T11:13:43.883Z,3.05
2023-02-04T11:16:10.280Z,2.22
2023-02-04T11:18:55.235Z,2.72
2023-02-04T11:21:21.548Z,3.35
2023-02-04T11:23:47.890Z,3.22
2023-02-04T11:26:19.105Z,2.78
2023-02-04T11:28:57.516Z,2.72
2023-02-04T11:31:24.121Z,3.17
2023-02-04T11:33:51.405Z,3.38
2023-02-04T11:36:17.906Z,2.88
2023-02-04T11:38:48.359Z,2.50
2023-02-04T11:41:22.714Z,2.58
2023-02-04T11:43:53.276Z,3.13
2023-02-04T11:46:20.518Z,2.45
2023-02-04T11:48:47.001Z,2.08
2023-02-04T11:51:15.350Z,3.30
2023-02-04T11:53:41.793Z,2.42
2023-02-04T11:56:16.631Z,2.60
2023-02-04T11:58:43.003Z,2.72
2023-02-04T12:01:21.009Z,2.95
2023-02-04T12:03:48.452Z,2.70
2023-02-04T12:06:26.170Z,2.67
2023-02-04T12:08:52.509Z,2.95
2023-02-04T12:11:27.271Z,2.60
2023-02-04T12:13:54.655Z,3.22
2023-02-04T12:16:21.164Z,3.30
2023-02-04T12:18:47.616Z,3.63
2023-02-04T12:21:16.923Z,2.63
2023-02-04T12:23:43.259Z,3.20
2023-02-04T12:26:09.646Z,2.80
2023-02-04T12:28:35.955Z,2.88
2023-02-04T12:31:02.391Z,2.55
2023-02-04T12:33:28.751Z,2.35
2023-02-04T12:35:55.160Z,2.50
2023-02-04T12:38:21.474Z,3.03
2023-02-04T12:40:47.825Z,2.60
2023-02-04T12:43:14.356Z,2.10
2023-02-04T12:45:45.636Z,2.83
2023-02-04T12:48:12.647Z,2.78
2023-02-04T12:50:38.991Z,2.53
2023-02-04T12:53:06.453Z,3.53
2023-02-04T12:55:33.177Z,2.60
2023-02-04T12:57:59.823Z,3.75
2023-02-04T13:00:27.535Z,2.80
2023-02-04T13:02:58.957Z,2.47
2023-02-04T13:05:25.547Z,2.30
2023-02-04T13:07:51.857Z,2.85
2023-02-04T13:10:18.524Z,2.42
2023-02-04T13:12:45.004Z,3.72
2023-02-04T13:15:11.469Z,3.60
2023-02-04T13:17:37.936Z,3.30
2023-02-04T13:20:05.232Z,2.92
2023-02-04T13:22:31.563Z,3.00
2023-02-04T13:24:57.972Z,2.65
2023-02-04T13:27:24.310Z,4.00
2023-02-04T13:29:50.609Z,3.50
2023-02-04T13:32:16.976Z,3.83
2023-02-04T13:34:43.370Z,2.92
2023-02-04T13:37:09.853Z,3.13
2023-02-04T13:39:36.241Z,3.13
2023-02-04T13:42:04.421Z,4.05
2023-02-04T13:44:31.101Z,3.63
2023-02-04T13:46:57.468Z,3.45
2023-02-04T13:49:23.988Z,3.75
2023-02-04T13:51:50.287Z,5.40
2023-02-04T13:54:16.689Z,4.45
2023-02-04T13:56:43.046Z,4.72
2023-02-04T13:59:09.340Z,4.85
2023-02-04T14:01:35.769Z,5.38
2023-02-04T14:04:02.295Z,4.47
2023-02-04T14:06:33.816Z,3.63
2023-02-04T14:09:00.947Z,3.67
2023-02-04T14:11:27.358Z,2.97
2023-02-04T14:13:53.756Z,3.20
2023-02-04T14:16:20.124Z,3.08
2023-02-04T14:18:46.678Z,3.17
2023-02-04T14:21:12.983Z,3.33
2023-02-04T14:23:39.393Z,3.47
2023-02-04T14:26:05.751Z,3.50
2023-02-04T14:28:32.064Z,4.22
2023-02-04T14:30:58.512Z,3.50
2023-02-04T14:33:24.917Z,5.07
2023-02-04T14:35:51.351Z,4.90
2023-02-04T14:38:18.521Z,4.13
2023-02-04T14:40:45.862Z,3.95
2023-02-04T14:43:12.354Z,3.72
2023-02-04T14:45:40.024Z,3.80
2023-02-04T14:48:06.649Z,4.05
2023-02-04T14:50:33.277Z,4.22
2023-02-04T14:52:59.825Z,4.20
2023-02-04T14:55:26.634Z,5.07
2023-02-04T14:57:53.027Z,5.50
2023-02-04T15:00:19.807Z,6.00
2023-02-04T15:02:47.312Z,5.55
2023-02-04T15:05:15.132Z,6.55
2023-02-04T15:07:41.835Z,6.65
2023-02-04T15:10:08.543Z,6.40
2023-02-04T15:12:35.199Z,6.05
2023-02-04T15:15:01.492Z,6.47
2023-02-04T15:17:27.857Z,7.15
2023-02-04T15:19:54.252Z,7.45
2023-02-04T15:22:20.598Z,7.10
2023-02-04T15:24:46.967Z,7.88
2023-02-04T15:27:13.328Z,7.13
2023-02-04T15:29:39.769Z,7.50
2023-02-04T15:32:06.446Z,7.35
2023-02-04T15:34:32.790Z,7.25
2023-02-04T15:36:59.154Z,7.63
2023-02-04T15:39:25.522Z,7.80
2023-02-04T15:41:51.875Z,7.10
2023-02-04T15:44:18.343Z,8.43
2023-02-04T15:46:44.674Z,7.88
2023-02-04T15:49:11.082Z,7.97
2023-02-04T15:51:37.554Z,8.57
2023-02-04T15:54:03.936Z,8.63
2023-02-04T15:56:30.252Z,8.30
2023-02-04T15:58:56.993Z,8.95
2023-02-04T16:01:23.364Z,8.25
2023-02-04T16:03:51.182Z,8.95
2023-02-04T16:06:17.601Z,8.63
2023-02-04T16:08:43.989Z,9.18
2023-02-04T16:11:10.355Z,8.75
2023-02-04T16:13:37.302Z,8.80
2023-02-04T16:16:03.890Z,9.25
2023-02-04T16:18:30.781Z,8.63
2023-02-04T16:20:57.146Z,8.65
2023-02-04T16:23:23.521Z,10.02
2023-02-04T16:25:49.932Z,9.15
2023-02-04T16:28:16.297Z,9.32
2023-02-04T16:30:42.654Z,8.73
2023-02-04T16:33:09.235Z,10.25
2023-02-04T16:35:54.319Z,9.90
2023-02-04T16:38:20.654Z,9.88
2023-02-04T16:40:46.981Z,8.95
2023-02-04T16:43:13.279Z,10.27
2023-02-04T16:45:39.688Z,9.52
2023-02-04T16:48:06.074Z,9.35
2023-02-04T16:50:32.723Z,9.90
2023-02-04T16:52:59.168Z,9.52
2023-02-04T16:55:27.756Z,9.82
2023-02-04T16:57:54.181Z,8.80
2023-02-04T17:00:20.661Z,9.82
2023-02-04T17:02:47.061Z,10.25
2023-02-04T17:05:13.610Z,9.73
2023-02-04T17:07:40.009Z,10.00
2023-02-04T17:10:06.553Z,10.32
2023-02-04T17:12:32.880Z,10.32
2023-02-04T17:14:59.178Z,10.32
2023-02-04T17:17:25.481Z,10.25
2023-02-04T17:19:51.957Z,9.93
2023-02-04T17:22:18.257Z,8.95
2023-02-04T17:24:44.596Z,9.13
2023-02-04T17:27:10.978Z,8.88
2023-02-04T17:29:37.326Z,8.90
2023-02-04T17:32:03.891Z,8.75
2023-02-04T17:34:30.626Z,8.48
2023-02-04T17:36:56.983Z,8.32
2023-02-04T17:39:23.319Z,8.85
2023-02-04T17:41:49.712Z,10.75
2023-02-04T17:44:20.114Z,9.27
2023-02-04T17:46:46.542Z,8.52
2023-02-04T17:49:13.025Z,8.23
2023-02-04T17:51:39.340Z,7.15
2023-02-04T17:54:05.683Z,7.03
2023-02-04T17:56:32.119Z,7.72
2023-02-04T17:58:58.437Z,7.38
2023-02-04T18:01:25.893Z,7.25
2023-02-04T18:03:52.681Z,7.40
2023-02-04T18:06:23.764Z,7.90
2023-02-04T18:08:51.131Z,7.47
2023-02-04T18:11:27.280Z,7.38
2023-02-04T18:13:54.752Z,7.65
2023-02-04T18:16:23.653Z,7.30
2023-02-04T18:18:51.730Z,7.97
2023-02-04T18:21:22.983Z,8.00
2023-02-04T18:23:56.600Z,7.45
2023-02-04T18:26:23.988Z,7.30
2023-02-04T18:28:50.600Z,7.65
2023-02-04T18:31:39.779Z,8.30
2023-02-04T18:34:16.866Z,7.75
2023-02-04T18:36:43.220Z,8.40
2023-02-04T18:39:13.977Z,7.95
2023-02-04T18:41:41.487Z,9.05
2023-02-04T18:44:40.420Z,9.38
2023-02-04T18:47:24.652Z,9.25
2023-02-04T18:49:51.058Z,8.10
2023-02-04T18:52:19.543Z,8.02
2023-02-04T18:54:56.351Z,7.95
2023-02-04T18:57:30.047Z,8.93
2023-02-04T19:00:08.472Z,8.82
2023-02-04T19:02:36.307Z,9.45
2023-02-04T19:05:13.072Z,8.73
2023-02-04T19:07:40.065Z,9.88
2023-02-04T19:10:27.528Z,9.77
2023-02-04T19:12:54.343Z,9.48
2023-02-04T19:15:34.487Z,10.07
2023-02-04T19:18:06.970Z,10.20
2023-02-04T19:20:33.288Z,9.95
2023-02-04T19:22:59.659Z,10.20
2023-02-04T19:25:32.498Z,9.00
2023-02-04T19:27:59.855Z,9.00
2023-02-04T19:30:26.240Z,9.65
2023-02-04T19:32:55.841Z,9.02
2023-02-04T19:35:23.829Z,9.88
2023-02-04T19:37:53.972Z,8.32
2023-02-04T19:40:26.315Z,8.00
2023-02-04T19:42:54.171Z,7.85
2023-02-04T19:45:22.438Z,8.00
2023-02-04T19:47:50.297Z,8.27
2023-02-04T19:50:22.847Z,7.68
2023-02-04T19:52:56.950Z,7.60
2023-02-04T19:55:31.734Z,8.65
2023-02-04T19:58:17.488Z,7.77
2023-02-04T20:00:46.726Z,9.48
2023-02-04T20:03:16.555Z,9.27
2023-02-04T20:05:43.379Z,10.15
2023-02-04T20:08:38.973Z,8.05
2023-02-04T20:11:25.633Z,8.75
2023-02-04T20:13:55.400Z,8.52
2023-02-04T20:16:39.993Z,9.38
2023-02-04T20:19:14.905Z,9.98
2023-02-04T20:21:41.617Z,8.67
2023-02-04T20:24:18.236Z,8.70
2023-02-04T20:26:45.239Z,8.77
2023-02-04T20:29:17.314Z,9.18
2023-02-04T20:31:43.725Z,8.98
2023-02-04T20:34:22.110Z,8.73
2023-02-04T20:36:48.998Z,9.85
2023-02-04T20:39:27.645Z,9.05
2023-02-04T20:41:54.059Z,9.35
2023-02-04T20:44:28.122Z,9.93
2023-02-04T20:47:14.927Z,10.50
2023-02-04T20:49:41.538Z,10.65
2023-02-04T20:52:27.917Z,10.15
2023-02-04T20:54:55.154Z,9.65
2023-02-04T20:57:21.745Z,9.32
2023-02-04T20:59:49.596Z,8.93
2023-02-04T21:02:20.787Z,9.23
2023-02-04T21:04:52.036Z,7.55
2023-02-04T21:07:19.620Z,9.23
2023-02-04T21:09:46.356Z,9.38
2023-02-04T21:12:12.712Z,9.05
2023-02-04T21:14:39.745Z,8.35
2023-02-04T21:17:06.494Z,9.35
2023-02-04T21:19:33.870Z,9.75
2023-02-04T21:22:00.208Z,9.02
2023-02-04T21:24:27.093Z,7.03
2023-02-04T21:26:53.483Z,9.50
2023-02-04T21:29:20.074Z,9.38
2023-02-04T21:31:46.578Z,10.43
2023-02-04T21:34:13.116Z,9.27
2023-02-04T21:36:39.587Z,9.50
2023-02-04T21:39:05.939Z,9.50
2023-02-04T21:41:32.289Z,9.38
2023-02-04T21:43:58.596Z,9.05
2023-02-04T21:46:24.997Z,7.88
2023-02-04T21:48:51.492Z,9.65
2023-02-04T21:51:18.916Z,6.55
2023-02-04T21:53:45.320Z,9.75
2023-02-04T21:56:11.796Z,8.63
2023-02-04T21:58:38.701Z,8.15
2023-02-04T22:01:05.286Z,9.00
2023-02-04T22:03:31.603Z,8.75
2023-02-04T22:05:57.936Z,7.72
2023-02-04T22:08:24.286Z,9.40
2023-02-04T22:10:50.645Z,9.27
2023-02-04T22:13:16.978Z,10.10
2023-02-04T22:15:49.127Z,6.57
2023-02-04T22:18:15.501Z,9.15
2023-02-04T22:20:41.872Z,10.23
2023-02-04T22:23:08.387Z,9.02
2023-02-04T22:25:34.985Z,11.07
2023-02-04T22:28:01.511Z,10.95
2023-02-04T22:30:27.884Z,10.18
2023-02-04T22:32:55.770Z,10.50
2023-02-04T22:35:23.389Z,11.07
2023-02-04T22:37:49.802Z,10.90
2023-02-04T22:40:16.336Z,10.98
2023-02-04T22:42:42.759Z,10.93
2023-02-04T22:45:10.283Z,10.43
2023-02-04T22:47:36.639Z,11.80
2023-02-04T22:50:03.213Z,10.80
2023-02-04T22:52:29.673Z,10.70
2023-02-04T22:54:56.010Z,10.65
2023-02-04T22:57:22.384Z,8.82
2023-02-04T22:59:48.709Z,9.55
2023-02-04T23:02:15.196Z,8.95
2023-02-04T23:04:43.972Z,7.75
2023-02-04T23:07:10.961Z,8.88
2023-02-04T23:09:37.338Z,8.50
2023-02-04T23:12:12.880Z,7.88
2023-02-04T23:14:43.407Z,8.50
2023-02-04T23:17:10.216Z,8.73
2023-02-04T23:19:36.982Z,9.13
2023-02-04T23:22:03.863Z,8.65
2023-02-04T23:24:30.348Z,8.20
2023-02-04T23:26:58.614Z,7.60
2023-02-04T23:29:25.074Z,6.70
2023-02-04T23:31:51.469Z,6.93
2023-02-04T23:34:17.847Z,7.82
2023-02-04T23:36:46.537Z,7.70
2023-02-04T23:39:12.991Z,7.35
2023-02-04T23:41:39.401Z,7.28
2023-02-04T23:44:05.764Z,8.57
2023-02-04T23:46:32.107Z,7.43
2023-02-04T23:48:58.414Z,7.45
2023-02-04T23:51:24.785Z,6.10
2023-02-04T23:53:51.125Z,5.78
2023-02-04T23:56:17.477Z,6.20
2023-02-04T23:58:43.836Z,5.50
